Date,TemperatureHighF,TemperatureAvgF,TemperatureLowF,DewpointHighF,DewpointAvgF,DewpointLowF,HumidityHigh,HumidityAvg,HumidityLow,PressureMaxIn,PressureMinIn,WindSpeedMaxMPH,WindSpeedAvgMPH,GustSpeedMaxMPH,PrecipitationSumIn
2013-3-1,31.0,23.2,14.0,-99.9,-99.9,-99.9,0,0,100,0.00,40.00,20,1,27,0.00
2013-3-2,34.0,19.6,4.0,-99.9,-99.9,-99.9,0,0,100,0.00,40.00,0,0,0,0.00
2013-3-3,39.0,15.1,1.0,-99.9,-99.9,-99.9,0,0,100,0.00,40.00,1,0,5,0.00
2013-3-4,36.0,19.8,5.0,-99.9,-99.9,-99.9,0,0,100,0.00,40.00,0,0,0,0.00
2013-3-5,37.0,24.4,10.0,-99.9,-99.9,-99.9,0,0,100,0.00,40.00,5,0,13,0.00
2013-3-6,35.0,30.3,25.0,-99.9,-99.9,-99.9,0,0,100,0.00,40.00,0,0,0,0.00
2013-3-7,42.0,22.5,9.0,-99.9,-99.9,-99.9,0,0,100,0.00,40.00,7,0,13,0.00
2013-3-8,51.0,30.7,13.0,-99.9,-99.9,-99.9,0,0,100,0.00,40.00,0,0,0,0.00
2013-3-9,40.0,35.0,27.0,-99.9,-99.9,-99.9,0,0,100,0.00,40.00,0,0,0,0.00
2013-3-10,39.0,35.3,32.0,-99.9,-99.9,-99.9,0,0,100,0.00,40.00,4,0,20,0.00
2013-3-11,36.0,32.8,28.0,-99.9,-99.9,-99.9,0,0,100,0.00,40.00,0,0,7,0.00
2013-3-12,32.0,27.3,21.0,-99.9,-99.9,-99.9,0,0,100,0.00,40.00,0,0,0,0.00
2013-3-13,37.0,26.7,20.0,-99.9,-99.9,-99.9,0,0,100,0.00,40.00,0,0,0,0.00
2013-3-14,40.0,29.9,20.0,-99.9,-99.9,-99.9,0,0,100,0.00,40.00,0,0,0,0.00
2013-3-15,37.0,29.8,19.0,-99.9,-99.9,-99.9,0,0,100,0.00,40.00,6,1,17,0.00
2013-3-16,37.0,25.2,19.0,-99.9,-99.9,-99.9,0,0,100,0.00,40.00,3,0,12,0.00
2013-3-17,32.0,21.8,12.0,-99.9,-99.9,-99.9,0,0,100,0.00,40.00,0,0,0,0.00
2013-3-18,36.0,28.8,23.0,-99.9,-99.9,-99.9,0,0,100,0.00,40.00,8,0,20,0.00
2013-3-19,34.0,24.7,16.0,-99.9,-99.9,-99.9,0,0,100,0.00,40.00,0,0,0,0.00
2013-3-20,32.0,19.7,9.0,-99.9,-99.9,-99.9,0,0,100,0.00,40.00,0,0,0,0.00
2013-3-21,35.0,25.1,16.0,-99.9,-99.9,-99.9,0,0,100,0.00,40.00,0,0,0,0.00
2013-3-22,38.0,25.7,12.0,-99.9,-99.9,-99.9,0,0,100,0.00,40.00,0,0,0,0.00
2013-3-23,41.0,31.8,26.0,-99.9,-99.9,-99.9,0,0,100,0.00,40.00,0,0,0,0.00
2013-3-24,40.0,31.9,27.0,-99.9,-99.9,-99.9,0,0,100,0.00,40.00,18,1,25,0.00
2013-3-25,41.0,31.8,27.0,-99.9,-99.9,-99.9,0,0,100,0.00,40.00,17,0,23,0.00
2013-3-26,44.0,33.8,29.0,-99.9,-99.9,-99.9,0,0,100,0.00,40.00,0,0,0,0.00
2013-3-27,62.0,38.2,25.0,-99.9,-99.9,-99.9,0,0,100,0.00,40.00,0,0,0,0.00
2013-3-28,61.0,37.0,26.0,-99.9,-99.9,-99.9,0,0,100,0.00,40.00,0,0,0,0.00
2013-3-29,60.0,41.1,24.0,-99.9,-99.9,-99.9,0,0,100,0.00,40.00,0,0,0,0.00
2013-3-30,43.0,37.3,32.0,-99.9,-99.9,-99.9,0,0,100,0.00,40.00,0,0,0,0.00
2013-3-31,48.0,35.9,28.0,-99.9,-99.9,-99.9,0,0,100,0.00,40.00,0,0,0,0.00